sensor_id;sensor_type;location;lat;lon;timestamp;pressure;altitude;pressure_sealevel;temperature;humidity
80103;BME280;69865;47.648;19.030;2024-01-27T00:00:10;100820.16;;;6.68;96.58
80103;BME280;69865;47.648;19.030;2024-01-27T00:00:42;100869.97;;;6.67;96.11
80103;BME280;69865;47.648;19.030;2024-01-27T00:01:15;100870.16;;;6.64;97.00
80103;BME280;69865;47.648;19.030;2024-01-27T00:01:47;100876.41;;;6.61;96.97
80103;BME280;69865;47.648;19.030;2024-01-27T00:02:19;100867.25;;;6.54;98.10
80103;BME280;69865;47.648;19.030;2024-01-27T00:02:51;100882.50;;;6.61;96.71
80103;BME280;69865;47.648;19.030;2024-01-27T00:03:23;100873.72;;;6.63;96.09
80103;BME280;69865;47.648;19.030;2024-01-27T00:03:55;100888.75;;;6.59;96.59
80103;BME280;69865;47.648;19.030;2024-01-27T00:04:27;100882.69;;;6.58;96.88
80103;BME280;69865;47.648;19.030;2024-01-27T00:05:00;100880.84;;;6.60;96.06
80103;BME280;69865;47.648;19.030;2024-01-27T00:05:32;100895.19;;;6.53;96.95
80103;BME280;69865;47.648;19.030;2024-01-27T00:06:04;100889.50;;;6.47;97.44
80103;BME280;69865;47.648;19.030;2024-01-27T00:06:37;100909.78;;;6.43;97.53
80103;BME280;69865;47.648;19.030;2024-01-27T00:07:09;100903.50;;;6.46;97.77
80103;BME280;69865;47.648;19.030;2024-01-27T00:07:41;100911.56;;;6.43;98.17
80103;BME280;69865;47.648;19.030;2024-01-27T00:08:13;100909.88;;;6.42;97.59
80103;BME280;69865;47.648;19.030;2024-01-27T00:08:45;100924.84;;;6.40;98.06
80103;BME280;69865;47.648;19.030;2024-01-27T00:09:17;100925.75;;;6.39;98.21
80103;BME280;69865;47.648;19.030;2024-01-27T00:09:51;100925.84;;;6.37;98.70
80103;BME280;69865;47.648;19.030;2024-01-27T00:10:23;100924.72;;;6.41;97.52
80103;BME280;69865;47.648;19.030;2024-01-27T00:10:55;100940.72;;;6.37;98.90
80103;BME280;69865;47.648;19.030;2024-01-27T00:11:27;100936.28;;;6.37;98.68
80103;BME280;69865;47.648;19.030;2024-01-27T00:11:59;100945.00;;;6.38;98.81
80103;BME280;69865;47.648;19.030;2024-01-27T00:12:31;100944.16;;;6.37;99.22
80103;BME280;69865;47.648;19.030;2024-01-27T00:13:04;100938.84;;;6.39;98.10
80103;BME280;69865;47.648;19.030;2024-01-27T00:13:36;100944.91;;;6.39;98.00
80103;BME280;69865;47.648;19.030;2024-01-27T00:14:08;100937.06;;;6.39;98.00
80103;BME280;69865;47.648;19.030;2024-01-27T00:14:40;100948.25;;;6.41;97.72
80103;BME280;69865;47.648;19.030;2024-01-27T00:15:12;100949.09;;;6.42;98.03
80103;BME280;69865;47.648;19.030;2024-01-27T00:15:44;100952.31;;;6.47;96.58
80103;BME280;69865;47.648;19.030;2024-01-27T00:16:16;100958.66;;;6.43;97.43
80103;BME280;69865;47.648;19.030;2024-01-27T00:16:48;100949.03;;;6.43;96.84
80103;BME280;69865;47.648;19.030;2024-01-27T00:17:23;100952.31;;;6.47;96.63
80103;BME280;69865;47.648;19.030;2024-01-27T00:17:55;100961.06;;;6.46;96.64
80103;BME280;69865;47.648;19.030;2024-01-27T00:18:27;100944.66;;;6.44;96.71
80103;BME280;69865;47.648;19.030;2024-01-27T00:19:00;100961.00;;;6.47;96.75
80103;BME280;69865;47.648;19.030;2024-01-27T00:19:32;100979.19;;;6.49;95.97
80103;BME280;69865;47.648;19.030;2024-01-27T00:20:08;100961.72;;;6.49;96.42
80103;BME280;69865;47.648;19.030;2024-01-27T00:20:40;100978.09;;;6.53;96.31
80103;BME280;69865;47.648;19.030;2024-01-27T00:21:12;100973.03;;;6.50;96.05
80103;BME280;69865;47.648;19.030;2024-01-27T00:21:44;100973.03;;;6.50;96.44
80103;BME280;69865;47.648;19.030;2024-01-27T00:22:16;100990.34;;;6.52;95.58
80103;BME280;69865;47.648;19.030;2024-01-27T00:22:48;100964.91;;;6.54;95.69
80103;BME280;69865;47.648;19.030;2024-01-27T00:23:21;100987.75;;;6.52;96.05
80103;BME280;69865;47.648;19.030;2024-01-27T00:23:52;100976.44;;;6.52;95.21
80103;BME280;69865;47.648;19.030;2024-01-27T00:24:25;100974.53;;;6.54;95.63
80103;BME280;69865;47.648;19.030;2024-01-27T00:24:58;100977.28;;;6.52;95.19
80103;BME280;69865;47.648;19.030;2024-01-27T00:25:30;100998.84;;;6.56;94.55
80103;BME280;69865;47.648;19.030;2024-01-27T00:26:03;100995.47;;;6.54;94.88
80103;BME280;69865;47.648;19.030;2024-01-27T00:26:35;100972.31;;;6.48;95.80
80103;BME280;69865;47.648;19.030;2024-01-27T00:27:07;100993.63;;;6.56;94.51
80103;BME280;69865;47.648;19.030;2024-01-27T00:27:39;100990.91;;;6.57;93.32
80103;BME280;69865;47.648;19.030;2024-01-27T00:28:11;100997.63;;;6.61;93.26
80103;BME280;69865;47.648;19.030;2024-01-27T00:28:43;100985.50;;;6.60;93.14
80103;BME280;69865;47.648;19.030;2024-01-27T00:29:15;100990.81;;;6.59;93.37
80103;BME280;69865;47.648;19.030;2024-01-27T00:29:47;101010.19;;;6.56;93.73
80103;BME280;69865;47.648;19.030;2024-01-27T00:30:20;101010.19;;;6.56;93.32
80103;BME280;69865;47.648;19.030;2024-01-27T00:30:52;101010.84;;;6.60;93.02
80103;BME280;69865;47.648;19.030;2024-01-27T00:31:24;101012.69;;;6.58;93.25
80103;BME280;69865;47.648;19.030;2024-01-27T00:31:56;101009.47;;;6.53;94.77
80103;BME280;69865;47.648;19.030;2024-01-27T00:32:28;101015.69;;;6.52;93.99
80103;BME280;69865;47.648;19.030;2024-01-27T00:33:00;101020.06;;;6.51;94.83
80103;BME280;69865;47.648;19.030;2024-01-27T00:33:33;101031.38;;;6.52;94.83
80103;BME280;69865;47.648;19.030;2024-01-27T00:34:05;101027.00;;;6.52;94.69
80103;BME280;69865;47.648;19.030;2024-01-27T00:34:37;101012.09;;;6.53;93.15
80103;BME280;69865;47.648;19.030;2024-01-27T00:35:10;101020.25;;;6.48;94.50
80103;BME280;69865;47.648;19.030;2024-01-27T00:35:42;101011.56;;;6.48;94.56
80103;BME280;69865;47.648;19.030;2024-01-27T00:36:14;101015.47;;;6.41;95.34
80103;BME280;69865;47.648;19.030;2024-01-27T00:36:46;101012.28;;;6.36;95.75
80103;BME280;69865;47.648;19.030;2024-01-27T00:37:18;101013.00;;;6.38;94.42
80103;BME280;69865;47.648;19.030;2024-01-27T00:37:52;101024.31;;;6.38;94.28
80103;BME280;69865;47.648;19.030;2024-01-27T00:38:24;101022.47;;;6.40;93.72
80103;BME280;69865;47.648;19.030;2024-01-27T00:38:56;101021.63;;;6.40;93.90
80103;BME280;69865;47.648;19.030;2024-01-27T00:39:28;101018.91;;;6.41;93.17
80103;BME280;69865;47.648;19.030;2024-01-27T00:40:02;101019.59;;;6.45;92.65
80103;BME280;69865;47.648;19.030;2024-01-27T00:40:35;101024.72;;;6.46;92.68
80103;BME280;69865;47.648;19.030;2024-01-27T00:41:16;101021.44;;;6.43;93.73
80103;BME280;69865;47.648;19.030;2024-01-27T00:41:48;101030.97;;;6.44;93.64
80103;BME280;69865;47.648;19.030;2024-01-27T00:42:21;101008.53;;;6.40;92.79
80103;BME280;69865;47.648;19.030;2024-01-27T00:42:53;101017.72;;;6.47;91.41
80103;BME280;69865;47.648;19.030;2024-01-27T00:43:25;101030.97;;;6.44;92.25
80103;BME280;69865;47.648;19.030;2024-01-27T00:43:57;101028.63;;;6.39;92.24
80103;BME280;69865;47.648;19.030;2024-01-27T00:44:29;101042.44;;;6.41;91.78
80103;BME280;69865;47.648;19.030;2024-01-27T00:45:01;101044.31;;;6.39;92.44
80103;BME280;69865;47.648;19.030;2024-01-27T00:45:34;101038.25;;;6.39;92.05
80103;BME280;69865;47.648;19.030;2024-01-27T00:46:06;101039.09;;;6.39;91.80
80103;BME280;69865;47.648;19.030;2024-01-27T00:46:38;101056.56;;;6.39;91.52
80103;BME280;69865;47.648;19.030;2024-01-27T00:47:10;101037.31;;;6.40;91.59
80103;BME280;69865;47.648;19.030;2024-01-27T00:47:42;101040.00;;;6.38;92.77
80103;BME280;69865;47.648;19.030;2024-01-27T00:48:15;101059.50;;;6.48;90.31
80103;BME280;69865;47.648;19.030;2024-01-27T00:48:47;101035.44;;;6.42;90.47
80103;BME280;69865;47.648;19.030;2024-01-27T00:49:19;101048.19;;;6.48;89.53
80103;BME280;69865;47.648;19.030;2024-01-27T00:49:52;101044.72;;;6.47;89.66
80103;BME280;69865;47.648;19.030;2024-01-27T00:50:25;101058.72;;;6.46;89.48
80103;BME280;69865;47.648;19.030;2024-01-27T00:50:57;101058.84;;;6.45;89.82
80103;BME280;69865;47.648;19.030;2024-01-27T00:51:29;101067.59;;;6.44;90.74
80103;BME280;69865;47.648;19.030;2024-01-27T00:52:01;101070.31;;;6.42;90.05
80103;BME280;69865;47.648;19.030;2024-01-27T00:52:33;101083.19;;;6.45;89.53
80103;BME280;69865;47.648;19.030;2024-01-27T00:53:05;101066.25;;;6.52;87.97
80103;BME280;69865;47.648;19.030;2024-01-27T00:53:39;101067.91;;;6.53;87.57
80103;BME280;69865;47.648;19.030;2024-01-27T00:54:11;101067.16;;;6.51;87.54
80103;BME280;69865;47.648;19.030;2024-01-27T00:54:43;101071.06;;;6.44;88.74
80103;BME280;69865;47.648;19.030;2024-01-27T00:55:16;101077.31;;;6.42;90.59
80103;BME280;69865;47.648;19.030;2024-01-27T00:55:48;101066.84;;;6.42;88.82
80103;BME280;69865;47.648;19.030;2024-01-27T00:56:20;101074.69;;;6.42;89.42
80103;BME280;69865;47.648;19.030;2024-01-27T00:56:52;101085.41;;;6.37;89.78
80103;BME280;69865;47.648;19.030;2024-01-27T00:57:24;101071.41;;;6.38;89.63
80103;BME280;69865;47.648;19.030;2024-01-27T00:57:56;101075.78;;;6.38;90.20
80103;BME280;69865;47.648;19.030;2024-01-27T00:58:29;101075.91;;;6.36;89.21
80103;BME280;69865;47.648;19.030;2024-01-27T00:59:01;101073.19;;;6.38;89.23
80103;BME280;69865;47.648;19.030;2024-01-27T00:59:33;101061.56;;;6.28;88.69
80103;BME280;69865;47.648;19.030;2024-01-27T01:00:06;101061.13;;;6.35;88.41
80103;BME280;69865;47.648;19.030;2024-01-27T01:00:38;101066.28;;;6.37;88.56
80103;BME280;69865;47.648;19.030;2024-01-27T01:01:10;101058.34;;;6.38;88.27
80103;BME280;69865;47.648;19.030;2024-01-27T01:01:42;101077.41;;;6.40;88.01
80103;BME280;69865;47.648;19.030;2024-01-27T01:02:15;101082.91;;;6.36;88.63
80103;BME280;69865;47.648;19.030;2024-01-27T01:02:47;101070.56;;;6.38;88.74
80103;BME280;69865;47.648;19.030;2024-01-27T01:03:19;101080.19;;;6.37;89.10
80103;BME280;69865;47.648;19.030;2024-01-27T01:03:51;101067.09;;;6.37;88.42
80103;BME280;69865;47.648;19.030;2024-01-27T01:04:23;101077.84;;;6.33;89.29
80103;BME280;69865;47.648;19.030;2024-01-27T01:04:56;101077.16;;;6.29;88.98
80103;BME280;69865;47.648;19.030;2024-01-27T01:05:29;101075.25;;;6.33;88.38
80103;BME280;69865;47.648;19.030;2024-01-27T01:06:01;101081.22;;;6.35;87.76
80103;BME280;69865;47.648;19.030;2024-01-27T01:06:33;101073.94;;;6.40;86.61
80103;BME280;69865;47.648;19.030;2024-01-27T01:07:06;101079.25;;;6.38;86.88
80103;BME280;69865;47.648;19.030;2024-01-27T01:07:38;101082.06;;;6.35;87.61
80103;BME280;69865;47.648;19.030;2024-01-27T01:08:10;101076.81;;;6.35;86.81
80103;BME280;69865;47.648;19.030;2024-01-27T01:08:42;101089.72;;;6.38;86.52
80103;BME280;69865;47.648;19.030;2024-01-27T01:09:14;101072.91;;;6.42;84.79
80103;BME280;69865;47.648;19.030;2024-01-27T01:09:47;101080.03;;;6.40;85.72
80103;BME280;69865;47.648;19.030;2024-01-27T01:10:20;101075.06;;;6.36;86.07
80103;BME280;69865;47.648;19.030;2024-01-27T01:10:52;101077.66;;;6.36;86.16
80103;BME280;69865;47.648;19.030;2024-01-27T01:11:25;101042.16;;;6.32;85.85
80103;BME280;69865;47.648;19.030;2024-01-27T01:11:57;101071.59;;;6.35;85.39
80103;BME280;69865;47.648;19.030;2024-01-27T01:12:29;101072.44;;;6.36;85.69
80103;BME280;69865;47.648;19.030;2024-01-27T01:13:02;101069.06;;;6.34;85.78
80103;BME280;69865;47.648;19.030;2024-01-27T01:13:34;101076.34;;;6.29;86.54
80103;BME280;69865;47.648;19.030;2024-01-27T01:14:06;101074.47;;;6.31;86.02
80103;BME280;69865;47.648;19.030;2024-01-27T01:14:38;101080.53;;;6.31;86.14
80103;BME280;69865;47.648;19.030;2024-01-27T01:15:10;101079.63;;;6.32;85.13
80103;BME280;69865;47.648;19.030;2024-01-27T01:15:42;101055.53;;;6.41;83.82
80103;BME280;69865;47.648;19.030;2024-01-27T01:16:14;101090.66;;;6.37;84.96
80103;BME280;69865;47.648;19.030;2024-01-27T01:16:46;101085.41;;;6.37;84.63
80103;BME280;69865;47.648;19.030;2024-01-27T01:17:18;101074.78;;;6.40;83.91
80103;BME280;69865;47.648;19.030;2024-01-27T01:17:50;101081.78;;;6.40;84.92
80103;BME280;69865;47.648;19.030;2024-01-27T01:18:22;101091.41;;;6.39;84.45
80103;BME280;69865;47.648;19.030;2024-01-27T01:18:55;101098.16;;;6.43;83.92
80103;BME280;69865;47.648;19.030;2024-01-27T01:19:27;101082.66;;;6.40;84.50
80103;BME280;69865;47.648;19.030;2024-01-27T01:19:59;101089.53;;;6.41;84.24
80103;BME280;69865;47.648;19.030;2024-01-27T01:20:31;101086.00;;;6.42;83.89
80103;BME280;69865;47.648;19.030;2024-01-27T01:21:04;101085.06;;;6.43;83.55
80103;BME280;69865;47.648;19.030;2024-01-27T01:21:36;101078.16;;;6.42;83.76
80103;BME280;69865;47.648;19.030;2024-01-27T01:22:10;101071.22;;;6.41;83.51
80103;BME280;69865;47.648;19.030;2024-01-27T01:22:44;101084.75;;;6.34;84.38
80103;BME280;69865;47.648;19.030;2024-01-27T01:23:16;101087.47;;;6.32;84.37
80103;BME280;69865;47.648;19.030;2024-01-27T01:23:48;101070.00;;;6.33;84.85
80103;BME280;69865;47.648;19.030;2024-01-27T01:24:21;101069.91;;;6.34;84.19
80103;BME280;69865;47.648;19.030;2024-01-27T01:24:53;101069.16;;;6.32;84.41
80103;BME280;69865;47.648;19.030;2024-01-27T01:25:26;101070.81;;;6.33;84.29
80103;BME280;69865;47.648;19.030;2024-01-27T01:25:58;101064.94;;;6.30;84.33
80103;BME280;69865;47.648;19.030;2024-01-27T01:26:30;101058.84;;;6.29;84.47
80103;BME280;69865;47.648;19.030;2024-01-27T01:27:03;101067.91;;;6.24;84.98
80103;BME280;69865;47.648;19.030;2024-01-27T01:27:35;101058.28;;;6.24;84.91
80103;BME280;69865;47.648;19.030;2024-01-27T01:28:08;101057.34;;;6.25;84.67
80103;BME280;69865;47.648;19.030;2024-01-27T01:28:40;101062.84;;;6.21;84.72
80103;BME280;69865;47.648;19.030;2024-01-27T01:29:12;101077.72;;;6.20;84.96
80103;BME280;69865;47.648;19.030;2024-01-27T01:29:45;101063.00;;;6.18;85.11
80103;BME280;69865;47.648;19.030;2024-01-27T01:30:17;101059.28;;;6.22;84.39
80103;BME280;69865;47.648;19.030;2024-01-27T01:30:49;101067.75;;;6.11;85.83
80103;BME280;69865;47.648;19.030;2024-01-27T01:31:21;101065.41;;;6.06;86.08
80103;BME280;69865;47.648;19.030;2024-01-27T01:31:53;101060.16;;;6.06;85.76
80103;BME280;69865;47.648;19.030;2024-01-27T01:32:25;101068.94;;;6.05;85.45
80103;BME280;69865;47.648;19.030;2024-01-27T01:32:57;101058.41;;;6.07;85.25
80103;BME280;69865;47.648;19.030;2024-01-27T01:33:30;101073.16;;;6.08;84.82
80103;BME280;69865;47.648;19.030;2024-01-27T01:34:02;101058.22;;;6.10;84.92
80103;BME280;69865;47.648;19.030;2024-01-27T01:34:34;101062.34;;;6.14;84.90
80103;BME280;69865;47.648;19.030;2024-01-27T01:35:06;101046.75;;;6.12;84.81
80103;BME280;69865;47.648;19.030;2024-01-27T01:35:38;101054.69;;;6.11;84.94
80103;BME280;69865;47.648;19.030;2024-01-27T01:36:11;101040.75;;;6.10;84.40
80103;BME280;69865;47.648;19.030;2024-01-27T01:36:43;101042.28;;;6.14;84.61
80103;BME280;69865;47.648;19.030;2024-01-27T01:37:15;101035.44;;;6.12;84.73
80103;BME280;69865;47.648;19.030;2024-01-27T01:37:47;101052.91;;;6.11;84.38
80103;BME280;69865;47.648;19.030;2024-01-27T01:38:19;101044.59;;;6.05;84.80
80103;BME280;69865;47.648;19.030;2024-01-27T01:38:51;101051.66;;;6.03;85.26
80103;BME280;69865;47.648;19.030;2024-01-27T01:39:23;101042.13;;;6.02;85.56
80103;BME280;69865;47.648;19.030;2024-01-27T01:39:55;101029.56;;;6.08;84.42
80103;BME280;69865;47.648;19.030;2024-01-27T01:40:29;101055.34;;;6.14;84.36
80103;BME280;69865;47.648;19.030;2024-01-27T01:41:01;101056.56;;;6.09;84.44
80103;BME280;69865;47.648;19.030;2024-01-27T01:41:34;101062.53;;;6.11;84.21
80103;BME280;69865;47.648;19.030;2024-01-27T01:42:06;101036.63;;;6.06;84.79
80103;BME280;69865;47.648;19.030;2024-01-27T01:42:38;101058.41;;;6.07;84.24
80103;BME280;69865;47.648;19.030;2024-01-27T01:43:10;101051.41;;;6.07;84.25
80103;BME280;69865;47.648;19.030;2024-01-27T01:43:42;101044.03;;;6.14;83.39
80103;BME280;69865;47.648;19.030;2024-01-27T01:44:15;101069.09;;;6.18;83.60
80103;BME280;69865;47.648;19.030;2024-01-27T01:44:47;101084.78;;;6.18;83.23
80103;BME280;69865;47.648;19.030;2024-01-27T01:45:19;101064.44;;;6.23;82.80
80103;BME280;69865;47.648;19.030;2024-01-27T01:45:52;101070.78;;;6.19;83.40
80103;BME280;69865;47.648;19.030;2024-01-27T01:46:24;101081.25;;;6.19;82.85
80103;BME280;69865;47.648;19.030;2024-01-27T01:46:56;101091.88;;;6.16;83.21
80103;BME280;69865;47.648;19.030;2024-01-27T01:47:29;101075.81;;;6.22;82.61
80103;BME280;69865;47.648;19.030;2024-01-27T01:48:02;101089.81;;;6.21;82.62
80103;BME280;69865;47.648;19.030;2024-01-27T01:48:34;101077.72;;;6.20;82.96
80103;BME280;69865;47.648;19.030;2024-01-27T01:49:07;101085.97;;;6.12;83.72
80103;BME280;69865;47.648;19.030;2024-01-27T01:49:40;101089.44;;;6.13;82.69
80103;BME280;69865;47.648;19.030;2024-01-27T01:50:12;101082.78;;;6.07;83.17
80103;BME280;69865;47.648;19.030;2024-01-27T01:50:46;101061.69;;;6.10;82.97
80103;BME280;69865;47.648;19.030;2024-01-27T01:51:18;101080.81;;;6.11;83.10
80103;BME280;69865;47.648;19.030;2024-01-27T01:51:50;101079.06;;;6.11;82.63
80103;BME280;69865;47.648;19.030;2024-01-27T01:52:22;101073.91;;;6.10;83.46
80103;BME280;69865;47.648;19.030;2024-01-27T01:52:55;101068.69;;;6.10;82.75
80103;BME280;69865;47.648;19.030;2024-01-27T01:53:29;101071.47;;;6.07;82.90
80103;BME280;69865;47.648;19.030;2024-01-27T01:54:01;101071.66;;;6.04;83.52
80103;BME280;69865;47.648;19.030;2024-01-27T01:54:34;101078.56;;;6.05;82.75
80103;BME280;69865;47.648;19.030;2024-01-27T01:55:07;101098.53;;;6.06;83.04
80103;BME280;69865;47.648;19.030;2024-01-27T01:55:40;101074.44;;;6.17;81.59
80103;BME280;69865;47.648;19.030;2024-01-27T01:56:14;101080.56;;;6.16;81.17
80103;BME280;69865;47.648;19.030;2024-01-27T01:56:47;101086.13;;;6.09;82.22
80103;BME280;69865;47.648;19.030;2024-01-27T01:57:19;101089.09;;;6.03;83.32
80103;BME280;69865;47.648;19.030;2024-01-27T01:57:51;101081.50;;;5.99;83.22
80103;BME280;69865;47.648;19.030;2024-01-27T01:58:23;101092.63;;;6.02;82.73
80103;BME280;69865;47.648;19.030;2024-01-27T01:58:56;101078.06;;;5.98;83.12
80103;BME280;69865;47.648;19.030;2024-01-27T01:59:28;101069.09;;;6.02;82.77
80103;BME280;69865;47.648;19.030;2024-01-27T02:00:00;101084.72;;;6.04;82.15
80103;BME280;69865;47.648;19.030;2024-01-27T02:00:32;101083.03;;;6.03;81.89
80103;BME280;69865;47.648;19.030;2024-01-27T02:01:05;101102.34;;;6.00;82.55
80103;BME280;69865;47.648;19.030;2024-01-27T02:01:38;101089.28;;;6.00;82.16
80103;BME280;69865;47.648;19.030;2024-01-27T02:02:11;101078.66;;;6.03;81.50
80103;BME280;69865;47.648;19.030;2024-01-27T02:02:44;101074.16;;;6.05;81.46
80103;BME280;69865;47.648;19.030;2024-01-27T02:03:16;101083.94;;;6.02;81.15
80103;BME280;69865;47.648;19.030;2024-01-27T02:03:52;101090.63;;;6.07;81.07
80103;BME280;69865;47.648;19.030;2024-01-27T02:04:24;101086.25;;;6.08;80.57
80103;BME280;69865;47.648;19.030;2024-01-27T02:04:56;101088.94;;;6.06;80.80
80103;BME280;69865;47.648;19.030;2024-01-27T02:05:29;101096.09;;;6.03;81.39
80103;BME280;69865;47.648;19.030;2024-01-27T02:06:01;101084.13;;;5.99;81.45
80103;BME280;69865;47.648;19.030;2024-01-27T02:06:33;101095.94;;;6.06;79.95
80103;BME280;69865;47.648;19.030;2024-01-27T02:07:05;101081.34;;;6.02;80.65
80103;BME280;69865;47.648;19.030;2024-01-27T02:07:38;101072.66;;;6.01;80.89
80103;BME280;69865;47.648;19.030;2024-01-27T02:08:10;101080.00;;;5.95;80.96
80103;BME280;69865;47.648;19.030;2024-01-27T02:08:42;101083.22;;;6.00;80.42
80103;BME280;69865;47.648;19.030;2024-01-27T02:09:14;101083.28;;;5.98;80.61
80103;BME280;69865;47.648;19.030;2024-01-27T02:09:46;101092.22;;;5.94;81.35
80103;BME280;69865;47.648;19.030;2024-01-27T02:10:18;101090.69;;;5.90;81.01
80103;BME280;69865;47.648;19.030;2024-01-27T02:10:52;101088.09;;;5.90;80.72
80103;BME280;69865;47.648;19.030;2024-01-27T02:11:24;101063.38;;;5.96;79.33
80103;BME280;69865;47.648;19.030;2024-01-27T02:11:56;101077.78;;;6.03;78.87
80103;BME280;69865;47.648;19.030;2024-01-27T02:12:28;101087.59;;;5.99;79.19
80103;BME280;69865;47.648;19.030;2024-01-27T02:13:01;101096.47;;;5.97;79.21
80103;BME280;69865;47.648;19.030;2024-01-27T02:13:33;101089.84;;;5.90;79.67
80103;BME280;69865;47.648;19.030;2024-01-27T02:14:06;101084.56;;;5.91;80.14
80103;BME280;69865;47.648;19.030;2024-01-27T02:14:38;101083.72;;;5.91;79.27
80103;BME280;69865;47.648;19.030;2024-01-27T02:15:11;101088.19;;;5.89;79.86
80103;BME280;69865;47.648;19.030;2024-01-27T02:15:43;101073.19;;;5.92;78.93
80103;BME280;69865;47.648;19.030;2024-01-27T02:16:15;101077.47;;;5.93;78.63
80103;BME280;69865;47.648;19.030;2024-01-27T02:16:47;101078.31;;;5.94;78.63
80103;BME280;69865;47.648;19.030;2024-01-27T02:17:19;101079.41;;;5.90;79.06
80103;BME280;69865;47.648;19.030;2024-01-27T02:17:52;101044.25;;;5.95;77.91
80103;BME280;69865;47.648;19.030;2024-01-27T02:18:24;101077.13;;;5.99;77.78
80103;BME280;69865;47.648;19.030;2024-01-27T02:18:56;101069.53;;;5.95;78.64
80103;BME280;69865;47.648;19.030;2024-01-27T02:19:29;101071.41;;;5.93;78.09
80103;BME280;69865;47.648;19.030;2024-01-27T02:20:01;101063.66;;;5.91;78.97
80103;BME280;69865;47.648;19.030;2024-01-27T02:20:33;101065.59;;;5.88;78.64
80103;BME280;69865;47.648;19.030;2024-01-27T02:21:05;101053.38;;;5.88;77.90
80103;BME280;69865;47.648;19.030;2024-01-27T02:21:37;101077.75;;;5.89;78.88
80103;BME280;69865;47.648;19.030;2024-01-27T02:22:09;101052.25;;;5.92;78.09
80103;BME280;69865;47.648;19.030;2024-01-27T02:22:41;101063.47;;;5.94;77.24
80103;BME280;69865;47.648;19.030;2024-01-27T02:23:14;101070.72;;;5.89;78.05
80103;BME280;69865;47.648;19.030;2024-01-27T02:23:46;101061.03;;;5.91;77.46
80103;BME280;69865;47.648;19.030;2024-01-27T02:24:22;101070.63;;;5.91;77.42
80103;BME280;69865;47.648;19.030;2024-01-27T02:24:54;101061.50;;;5.82;77.76
80103;BME280;69865;47.648;19.030;2024-01-27T02:25:26;101066.81;;;5.81;77.98
80103;BME280;69865;47.648;19.030;2024-01-27T02:25:58;101075.66;;;5.78;78.51
80103;BME280;69865;47.648;19.030;2024-01-27T02:26:31;101055.72;;;5.77;78.01
80103;BME280;69865;47.648;19.030;2024-01-27T02:27:03;101062.53;;;5.80;77.37
80103;BME280;69865;47.648;19.030;2024-01-27T02:27:35;101072.13;;;5.79;77.22
80103;BME280;69865;47.648;19.030;2024-01-27T02:28:07;101053.16;;;5.76;77.76
80103;BME280;69865;47.648;19.030;2024-01-27T02:28:39;101061.91;;;5.75;77.57
80103;BME280;69865;47.648;19.030;2024-01-27T02:29:11;101047.50;;;5.83;76.29
80103;BME280;69865;47.648;19.030;2024-01-27T02:29:43;101053.25;;;5.90;75.32
80103;BME280;69865;47.648;19.030;2024-01-27T02:30:15;101071.03;;;5.83;76.34
80103;BME280;69865;47.648;19.030;2024-01-27T02:30:48;101060.56;;;5.83;76.57
80103;BME280;69865;47.648;19.030;2024-01-27T02:31:20;101069.50;;;5.79;76.46
80103;BME280;69865;47.648;19.030;2024-01-27T02:31:52;101053.00;;;5.79;76.44
80103;BME280;69865;47.648;19.030;2024-01-27T02:32:24;101063.13;;;5.85;76.05
80103;BME280;69865;47.648;19.030;2024-01-27T02:32:56;101045.59;;;5.87;75.65
80103;BME280;69865;47.648;19.030;2024-01-27T02:33:29;101082.34;;;5.84;75.45
80103;BME280;69865;47.648;19.030;2024-01-27T02:34:02;101026.53;;;5.85;74.89
80103;BME280;69865;47.648;19.030;2024-01-27T02:34:34;101060.19;;;5.91;73.52
80103;BME280;69865;47.648;19.030;2024-01-27T02:35:07;101055.88;;;5.90;74.52
80103;BME280;69865;47.648;19.030;2024-01-27T02:35:40;101061.22;;;5.88;74.23
80103;BME280;69865;47.648;19.030;2024-01-27T02:36:12;101058.50;;;5.90;74.21
80103;BME280;69865;47.648;19.030;2024-01-27T02:36:44;101050.81;;;5.87;74.16
80103;BME280;69865;47.648;19.030;2024-01-27T02:37:17;101061.28;;;5.87;74.17
80103;BME280;69865;47.648;19.030;2024-01-27T02:37:50;101065.06;;;5.81;74.12
80103;BME280;69865;47.648;19.030;2024-01-27T02:38:22;101062.44;;;5.81;74.72
80103;BME280;69865;47.648;19.030;2024-01-27T02:38:54;101046.84;;;5.80;74.31
80103;BME280;69865;47.648;19.030;2024-01-27T02:39:27;101020.53;;;5.83;73.69
80103;BME280;69865;47.648;19.030;2024-01-27T02:40:02;101060.75;;;5.80;74.75
80103;BME280;69865;47.648;19.030;2024-01-27T02:40:34;101071.22;;;5.80;74.07
80103;BME280;69865;47.648;19.030;2024-01-27T02:41:06;101062.78;;;5.75;74.77
80103;BME280;69865;47.648;19.030;2024-01-27T02:41:38;101064.97;;;5.83;73.85
80103;BME280;69865;47.648;19.030;2024-01-27T02:42:11;101072.81;;;5.83;72.71
80103;BME280;69865;47.648;19.030;2024-01-27T02:42:43;101074.75;;;5.79;73.87
80103;BME280;69865;47.648;19.030;2024-01-27T02:43:15;101067.94;;;5.77;73.57
80103;BME280;69865;47.648;19.030;2024-01-27T02:43:47;101073.16;;;5.77;73.73
80103;BME280;69865;47.648;19.030;2024-01-27T02:44:19;101098.44;;;5.76;73.33
80103;BME280;69865;47.648;19.030;2024-01-27T02:44:51;101060.56;;;5.83;72.20
80103;BME280;69865;47.648;19.030;2024-01-27T02:45:24;101066.00;;;5.96;71.11
80103;BME280;69865;47.648;19.030;2024-01-27T02:45:56;101082.97;;;5.89;71.48
80103;BME280;69865;47.648;19.030;2024-01-27T02:46:28;101051.66;;;5.87;71.83
80103;BME280;69865;47.648;19.030;2024-01-27T02:47:00;101063.28;;;5.97;70.60
80103;BME280;69865;47.648;19.030;2024-01-27T02:47:32;101085.03;;;5.98;70.05
80103;BME280;69865;47.648;19.030;2024-01-27T02:48:05;101081.75;;;5.94;70.92
80103;BME280;69865;47.648;19.030;2024-01-27T02:48:40;101084.72;;;5.88;71.11
80103;BME280;69865;47.648;19.030;2024-01-27T02:49:12;101072.72;;;5.84;71.97